createdAt,value
2022-07-30T00:01:41.990Z,97782.41
2022-07-30T00:04:14.821Z,97788.59
2022-07-30T00:06:45.107Z,97785.22
2022-07-30T00:09:15.461Z,97777.09
2022-07-30T00:11:45.778Z,97769.09
2022-07-30T00:14:16.014Z,97767.47
2022-07-30T00:16:46.275Z,97765.41
2022-07-30T00:19:19.122Z,97774.06
2022-07-30T00:21:50.901Z,97771.91
2022-07-30T00:24:21.099Z,97775.53
2022-07-30T00:26:51.552Z,97778.69
2022-07-30T00:29:21.857Z,97778.56
2022-07-30T00:31:52.056Z,97763.94
2022-07-30T00:34:24.919Z,97767.63
2022-07-30T00:36:55.256Z,97755.28
2022-07-30T00:39:25.538Z,97754.78
2022-07-30T00:42:03.914Z,97752.84
2022-07-30T00:44:34.218Z,97746.56
2022-07-30T00:47:04.877Z,97748.09
2022-07-30T00:49:42.595Z,97746.16
2022-07-30T00:52:14.560Z,97746.16
2022-07-30T00:54:44.897Z,97742.81
2022-07-30T00:57:15.128Z,97750.03
2022-07-30T00:59:45.404Z,97748.75
2022-07-30T01:02:15.625Z,97741.81
2022-07-30T01:04:48.673Z,97742.81
2022-07-30T01:07:19.208Z,97743.56
2022-07-30T01:09:49.482Z,97739.53
2022-07-30T01:12:26.402Z,97739.94
2022-07-30T01:14:59.100Z,97734.91
2022-07-30T01:17:29.628Z,97736.84
2022-07-30T01:20:09.047Z,97729.78
2022-07-30T01:22:53.253Z,97733.91
2022-07-30T01:25:48.481Z,97730.09
2022-07-30T01:28:26.774Z,97736.81
2022-07-30T01:30:59.573Z,97739.19
2022-07-30T01:33:31.399Z,97743.75
2022-07-30T01:36:04.474Z,97751.84
2022-07-30T01:38:35.883Z,97750.03
2022-07-30T01:41:07.661Z,97739.66
2022-07-30T01:43:43.074Z,97741.91
2022-07-30T01:46:15.155Z,97735.19
2022-07-30T01:48:48.797Z,97740.72
2022-07-30T01:51:21.307Z,97745.03
2022-07-30T01:53:56.479Z,97742.66
2022-07-30T01:56:29.027Z,97740.06
2022-07-30T01:59:10.060Z,97738.97
2022-07-30T02:01:40.353Z,97735.91
2022-07-30T02:04:10.622Z,97739.38
2022-07-30T02:06:45.551Z,97743.09
2022-07-30T02:09:26.210Z,97746.66
2022-07-30T02:12:10.979Z,97740.50
2022-07-30T02:14:53.286Z,97743.31
2022-07-30T02:17:30.426Z,97751.53
2022-07-30T02:20:13.643Z,97747.31
2022-07-30T02:22:48.966Z,97751.75
2022-07-30T02:25:24.183Z,97756.41
2022-07-30T02:28:01.665Z,97748.09
2022-07-30T02:30:39.689Z,97743.13
2022-07-30T02:33:12.955Z,97746.34
2022-07-30T02:35:44.324Z,97734.22
2022-07-30T02:38:17.398Z,97738.00
2022-07-30T02:40:49.014Z,97731.84
2022-07-30T02:43:21.692Z,97729.66
2022-07-30T02:45:55.648Z,97734.22
2022-07-30T02:48:35.517Z,97723.72
2022-07-30T02:51:08.311Z,97724.47
2022-07-30T02:53:40.839Z,97716.44
2022-07-30T02:56:12.906Z,97717.00
2022-07-30T02:58:44.413Z,97714.25
2022-07-30T03:01:21.205Z,97703.22
2022-07-30T03:03:52.911Z,97705.59
2022-07-30T03:06:26.490Z,97702.84
2022-07-30T03:08:57.775Z,97709.47
2022-07-30T03:11:30.028Z,97717.75
2022-07-30T03:14:00.794Z,97708.88
2022-07-30T03:16:34.758Z,97709.03
2022-07-30T03:19:06.754Z,97714.22
2022-07-30T03:21:40.370Z,97717.75
2022-07-30T03:24:15.222Z,97713.66
2022-07-30T03:26:46.875Z,97724.78
2022-07-30T03:29:21.827Z,97725.19
2022-07-30T03:31:55.985Z,97720.22
2022-07-30T03:34:26.754Z,97724.19
2022-07-30T03:36:59.809Z,97726.78
2022-07-30T03:39:31.393Z,97721.59
2022-07-30T03:42:01.948Z,97721.59
2022-07-30T03:44:34.272Z,97722.59
2022-07-30T03:47:11.737Z,97719.44
2022-07-30T03:49:47.855Z,97726.34
2022-07-30T03:52:18.684Z,97731.97
2022-07-30T03:54:50.740Z,97733.50
2022-07-30T03:57:50.412Z,97731.59
2022-07-30T04:00:23.554Z,97735.69
2022-07-30T04:02:59.284Z,97736.22
2022-07-30T04:05:37.608Z,97742.91
2022-07-30T04:08:11.659Z,97747.78
2022-07-30T04:10:42.666Z,97743.88
2022-07-30T04:13:47.222Z,97736.75
2022-07-30T04:16:38.993Z,97748.22
2022-07-30T04:19:21.740Z,97752.31
2022-07-30T04:21:54.336Z,97742.25
2022-07-30T04:24:26.866Z,97751.75
2022-07-30T04:26:58.157Z,97748.19
2022-07-30T04:29:28.725Z,97742.59
2022-07-30T04:32:00.134Z,97751.72
2022-07-30T04:35:05.588Z,97754.88
2022-07-30T04:37:56.070Z,97752.19
2022-07-30T04:40:26.472Z,97759.97
2022-07-30T04:42:56.702Z,97761.16
2022-07-30T04:45:27.878Z,97766.91
2022-07-30T04:48:01.323Z,97762.22
2022-07-30T04:50:37.939Z,97767.22
2022-07-30T04:53:11.481Z,97761.81
2022-07-30T04:55:48.394Z,97752.63
2022-07-30T04:58:23.800Z,97757.69
2022-07-30T05:00:56.003Z,97762.22
2022-07-30T05:03:32.491Z,97759.22
2022-07-30T05:06:06.304Z,97751.31
2022-07-30T05:08:41.464Z,97754.34
2022-07-30T05:11:16.028Z,97751.97
2022-07-30T05:13:48.558Z,97745.03
2022-07-30T05:16:22.847Z,97751.75
2022-07-30T05:18:54.152Z,97747.97
2022-07-30T05:21:28.649Z,97742.00
2022-07-30T05:23:59.496Z,97746.97
2022-07-30T05:26:38.245Z,97735.06
2022-07-30T05:29:09.150Z,97734.53
2022-07-30T05:31:52.813Z,97730.97
2022-07-30T05:34:23.197Z,97730.09
2022-07-30T05:36:58.322Z,97731.19
2022-07-30T05:39:29.484Z,97743.19
2022-07-30T05:42:18.659Z,97745.78
2022-07-30T05:44:55.084Z,97747.63
2022-07-30T05:47:25.285Z,97752.03
2022-07-30T05:49:55.488Z,97748.44
2022-07-30T05:52:28.949Z,97750.81
2022-07-30T05:55:05.931Z,97751.56
2022-07-30T05:57:56.342Z,97753.41
2022-07-30T06:00:26.690Z,97753.69
2022-07-30T06:02:58.336Z,97749.50
2022-07-30T06:05:47.037Z,97755.59
2022-07-30T06:08:19.845Z,97753.44
2022-07-30T06:10:50.401Z,97756.69
2022-07-30T06:13:20.619Z,97756.81
2022-07-30T06:15:50.927Z,97763.00
2022-07-30T06:18:23.180Z,97762.13
2022-07-30T06:20:55.882Z,97767.75
2022-07-30T06:23:28.415Z,97771.97
2022-07-30T06:26:19.009Z,97780.59
2022-07-30T06:28:49.215Z,97778.19
2022-07-30T06:31:25.982Z,97783.50
2022-07-30T06:33:56.482Z,97782.13
2022-07-30T06:36:28.498Z,97778.84
2022-07-30T06:39:06.924Z,97779.81
2022-07-30T06:41:57.704Z,97786.28
2022-07-30T06:44:32.671Z,97796.53
2022-07-30T06:47:29.240Z,97794.56
2022-07-30T06:50:01.152Z,97785.19
2022-07-30T06:52:32.895Z,97796.63
2022-07-30T06:55:07.381Z,97793.28
2022-07-30T06:57:44.670Z,97801.81
2022-07-30T07:00:34.846Z,97803.31
2022-07-30T07:03:11.969Z,97798.00
2022-07-30T07:05:42.587Z,97809.81
2022-07-30T07:08:12.817Z,97795.09
2022-07-30T07:10:51.122Z,97800.97
2022-07-30T07:13:47.379Z,97802.16
2022-07-30T07:16:26.848Z,97810.72
2022-07-30T07:18:59.008Z,97807.53
2022-07-30T07:21:29.304Z,97814.25
2022-07-30T07:24:00.480Z,97807.13
2022-07-30T07:26:51.642Z,97811.47
2022-07-30T07:29:22.586Z,97811.09
2022-07-30T07:32:07.210Z,97812.19
2022-07-30T07:34:39.752Z,97812.28
2022-07-30T07:37:11.174Z,97809.25
2022-07-30T07:39:42.427Z,97813.03
2022-07-30T07:42:15.576Z,97809.25
2022-07-30T07:44:47.379Z,97810.13
2022-07-30T07:47:17.921Z,97800.81
2022-07-30T07:49:59.375Z,97812.38
2022-07-30T07:52:29.644Z,97808.28
2022-07-30T07:54:59.823Z,97817.59
2022-07-30T07:57:41.580Z,97820.41
2022-07-30T08:00:17.947Z,97812.50
2022-07-30T08:02:52.056Z,97811.97
2022-07-30T08:05:22.348Z,97812.59
2022-07-30T08:08:06.516Z,97818.25
2022-07-30T08:10:55.447Z,97827.97
2022-07-30T08:13:52.560Z,97824.94
2022-07-30T08:16:41.879Z,97828.56
2022-07-30T08:19:36.920Z,97834.97
2022-07-30T08:22:15.605Z,97838.59
2022-07-30T08:24:45.651Z,97832.09
2022-07-30T08:27:16.087Z,97833.16
2022-07-30T08:29:49.204Z,97836.09
2022-07-30T08:32:19.434Z,97834.47
2022-07-30T08:34:49.950Z,97835.13
2022-07-30T08:37:20.186Z,97838.81
2022-07-30T08:39:50.454Z,97842.06
2022-07-30T08:42:20.760Z,97846.28
2022-07-30T08:44:56.643Z,97846.38
2022-07-30T08:47:33.305Z,97847.28
2022-07-30T08:50:16.988Z,97852.13
2022-07-30T08:53:16.853Z,97852.78
2022-07-30T08:55:48.368Z,97862.31
2022-07-30T08:58:30.570Z,97854.53
2022-07-30T09:01:03.657Z,97861.22
2022-07-30T09:03:34.186Z,97860.25
2022-07-30T09:06:08.283Z,97854.94
2022-07-30T09:08:38.492Z,97861.75
2022-07-30T09:11:08.968Z,97862.41
2022-07-30T09:13:42.465Z,97861.75
2022-07-30T09:16:24.694Z,97859.28
2022-07-30T09:18:57.887Z,97871.72
2022-07-30T09:21:31.623Z,97864.56
2022-07-30T09:24:15.982Z,97863.50
2022-07-30T09:27:07.781Z,97865.22
2022-07-30T09:30:01.421Z,97867.63
2022-07-30T09:32:55.996Z,97865.78
2022-07-30T09:35:28.743Z,97872.38
2022-07-30T09:38:14.896Z,97879.22
2022-07-30T09:41:39.422Z,97882.69
2022-07-30T09:44:27.850Z,97885.59
2022-07-30T09:47:02.962Z,97880.16
2022-07-30T09:49:43.159Z,97883.88
2022-07-30T09:52:31.229Z,97881.25
2022-07-30T09:55:03.574Z,97881.38
2022-07-30T09:57:34.394Z,97884.84
2022-07-30T10:00:24.237Z,97884.28
2022-07-30T10:03:21.592Z,97892.97
2022-07-30T10:06:38.072Z,97886.03
2022-07-30T10:09:45.250Z,97897.06
2022-07-30T10:12:18.751Z,97888.50
2022-07-30T10:14:56.987Z,97886.09
2022-07-30T10:17:27.522Z,97891.84
2022-07-30T10:20:23.957Z,97889.72
2022-07-30T10:23:18.413Z,97891.34
2022-07-30T10:26:11.604Z,97894.50
2022-07-30T10:29:00.703Z,97891.03
2022-07-30T10:31:48.071Z,97895.34
2022-07-30T10:34:23.769Z,97898.22
2022-07-30T10:37:04.781Z,97902.16
2022-07-30T10:39:47.132Z,97903.25
2022-07-30T10:42:29.409Z,97899.06
2022-07-30T10:45:23.049Z,97909.84
2022-07-30T10:47:54.858Z,97906.50
2022-07-30T10:50:29.264Z,97903.66
2022-07-30T10:53:01.636Z,97901.09
2022-07-30T10:55:39.343Z,97908.78
2022-07-30T10:58:12.366Z,97908.94
2022-07-30T11:01:02.604Z,97910.84
2022-07-30T11:03:41.512Z,97910.91
2022-07-30T11:06:30.924Z,97914.38
2022-07-30T11:09:01.507Z,97905.09
2022-07-30T11:12:05.010Z,97912.34
2022-07-30T11:15:06.775Z,97914.72
2022-07-30T11:18:12.868Z,97909.72
2022-07-30T11:20:48.670Z,97915.34
2022-07-30T11:23:42.999Z,97913.97
2022-07-30T11:26:13.927Z,97916.47
2022-07-30T11:28:49.795Z,97919.19
2022-07-30T11:31:54.860Z,97905.25
2022-07-30T11:34:31.638Z,97911.41
2022-07-30T11:37:18.458Z,97907.13
2022-07-30T11:40:15.159Z,97909.94
2022-07-30T11:42:45.469Z,97907.22
2022-07-30T11:45:32.410Z,97912.78
2022-07-30T11:48:03.224Z,97910.06
2022-07-30T11:50:36.449Z,97906.69
2022-07-30T11:53:09.569Z,97914.59
2022-07-30T11:55:42.625Z,97911.59
2022-07-30T11:58:26.812Z,97909.66
2022-07-30T12:01:02.130Z,97909.47
2022-07-30T12:03:34.557Z,97920.44
2022-07-30T12:06:10.635Z,97925.78
2022-07-30T12:08:45.141Z,97926.06
2022-07-30T12:11:15.703Z,97926.19
2022-07-30T12:13:46.497Z,97936.44
2022-07-30T12:16:22.426Z,97924.13
2022-07-30T12:18:52.632Z,97930.25
2022-07-30T12:21:23.068Z,97925.25
2022-07-30T12:24:02.347Z,97930.25
2022-07-30T12:26:34.922Z,97934.22
2022-07-30T12:29:10.236Z,97927.06
2022-07-30T12:31:45.317Z,97931.41
2022-07-30T12:34:23.821Z,97928.88
2022-07-30T12:36:54.412Z,97932.53
2022-07-30T12:39:26.247Z,97931.16
2022-07-30T12:41:58.573Z,97937.25
2022-07-30T12:44:40.474Z,97939.78
2022-07-30T12:47:24.140Z,97940.66
2022-07-30T12:49:55.268Z,97931.19
2022-07-30T12:52:31.605Z,97939.94
2022-07-30T12:55:09.709Z,97930.44
2022-07-30T12:58:07.055Z,97941.28
2022-07-30T13:00:52.401Z,97931.66
2022-07-30T13:03:27.667Z,97930.78
2022-07-30T13:06:00.549Z,97924.69
2022-07-30T13:08:58.857Z,97927.00
2022-07-30T13:11:42.328Z,97934.72
2022-07-30T13:14:23.648Z,97934.84
2022-07-30T13:16:58.944Z,97938.63
2022-07-30T13:19:31.807Z,97935.59
2022-07-30T13:22:01.983Z,97938.44
2022-07-30T13:24:34.185Z,97940.50
2022-07-30T13:27:04.749Z,97943.81
2022-07-30T13:29:35.204Z,97939.78
2022-07-30T13:32:05.311Z,97941.84
2022-07-30T13:34:38.262Z,97945.03
2022-07-30T13:37:08.764Z,97942.22
2022-07-30T13:39:39.037Z,97941.47
2022-07-30T13:42:09.647Z,97939.22
2022-07-30T13:44:39.866Z,97948.75
2022-07-30T13:47:10.709Z,97951.50
2022-07-30T13:49:49.408Z,97943.66
2022-07-30T13:52:19.663Z,97946.09
2022-07-30T13:54:51.450Z,97944.00
2022-07-30T13:57:21.658Z,97941.09
2022-07-30T13:59:52.704Z,97950.84
2022-07-30T14:02:22.920Z,97950.75
2022-07-30T14:04:55.693Z,97941.19
2022-07-30T14:07:26.092Z,97944.75
2022-07-30T14:09:56.265Z,97947.81
2022-07-30T14:12:26.423Z,97942.06
2022-07-30T14:14:56.821Z,97949.00
2022-07-30T14:17:27.000Z,97952.25
2022-07-30T14:19:59.842Z,97947.56
2022-07-30T14:22:30.063Z,97948.72
2022-07-30T14:25:00.341Z,97948.59
2022-07-30T14:27:30.552Z,97949.91
2022-07-30T14:30:00.892Z,97943.59
2022-07-30T14:32:32.744Z,97942.06
2022-07-30T14:35:05.639Z,97938.31
2022-07-30T14:37:36.019Z,97941.56
2022-07-30T14:40:06.911Z,97942.31
2022-07-30T14:42:37.119Z,97939.78
2022-07-30T14:45:08.287Z,97936.44
2022-07-30T14:47:39.349Z,97934.66
2022-07-30T14:50:12.710Z,97941.59
2022-07-30T14:52:43.910Z,97936.06
2022-07-30T14:55:14.096Z,97944.34
2022-07-30T14:57:44.941Z,97940.53
2022-07-30T15:00:16.404Z,97936.09
2022-07-30T15:02:46.564Z,97941.78
2022-07-30T15:05:19.466Z,97941.81
2022-07-30T15:07:49.613Z,97932.72
2022-07-30T15:10:19.880Z,97948.66
2022-07-30T15:12:50.008Z,97945.47
2022-07-30T15:15:20.197Z,97942.78
2022-07-30T15:17:53.444Z,97946.59
2022-07-30T15:20:26.222Z,97941.19
2022-07-30T15:22:56.392Z,97936.75
2022-07-30T15:25:26.871Z,97941.81
2022-07-30T15:27:56.819Z,97947.69
2022-07-30T15:30:27.074Z,97940.50
2022-07-30T15:32:57.458Z,97941.75
2022-07-30T15:35:30.004Z,97937.13
2022-07-30T15:38:02.406Z,97935.72
2022-07-30T15:40:32.578Z,97936.13
2022-07-30T15:43:08.609Z,97935.22
2022-07-30T15:45:52.442Z,97936.53
2022-07-30T15:48:27.840Z,97935.63
2022-07-30T15:51:05.086Z,97944.44
2022-07-30T15:53:36.446Z,97935.59
2022-07-30T15:56:07.102Z,97931.94
2022-07-30T15:58:43.397Z,97928.13
2022-07-30T16:01:14.120Z,97935.50
2022-07-30T16:03:44.403Z,97932.31
2022-07-30T16:06:17.302Z,97942.25
2022-07-30T16:08:47.538Z,97944.91
2022-07-30T16:11:17.729Z,97937.69
2022-07-30T16:13:48.557Z,97940.66
2022-07-30T16:16:19.165Z,97942.69
2022-07-30T16:18:49.053Z,97941.06
2022-07-30T16:21:21.952Z,97957.84
2022-07-30T16:23:52.731Z,97942.44
2022-07-30T16:26:23.114Z,97945.88
2022-07-30T16:28:53.843Z,97938.28
2022-07-30T16:31:24.180Z,97939.53
2022-07-30T16:33:54.382Z,97939.13
2022-07-30T16:36:27.144Z,97949.28
2022-07-30T16:38:57.253Z,97957.03
2022-07-30T16:41:27.625Z,97954.22
2022-07-30T16:43:57.814Z,97957.38
2022-07-30T16:46:28.062Z,97960.69
2022-07-30T16:48:58.381Z,97963.28
2022-07-30T16:51:31.265Z,97963.94
2022-07-30T16:54:01.458Z,97956.22
2022-07-30T16:56:31.716Z,97959.91
2022-07-30T16:59:02.045Z,97964.38
2022-07-30T17:01:32.345Z,97967.72
2022-07-30T17:04:02.641Z,97967.19
2022-07-30T17:06:35.689Z,97978.56
2022-07-30T17:09:06.020Z,97973.56
2022-07-30T17:11:47.808Z,97980.28
2022-07-30T17:14:22.695Z,97986.56
2022-07-30T17:16:53.547Z,97985.25
2022-07-30T17:19:23.761Z,97988.53
2022-07-30T17:21:56.572Z,97988.72
2022-07-30T17:24:26.807Z,97988.06
2022-07-30T17:26:57.002Z,97998.44
2022-07-30T17:29:27.116Z,97995.19
2022-07-30T17:31:57.290Z,97995.84
2022-07-30T17:34:27.504Z,97998.00
2022-07-30T17:37:00.312Z,97998.22
2022-07-30T17:40:19.862Z,97991.06
2022-07-30T17:42:21.340Z,97991.72
2022-07-30T17:44:51.550Z,97995.59
2022-07-30T17:47:21.816Z,97990.28
2022-07-30T17:49:52.014Z,97992.34
2022-07-30T17:52:26.502Z,97994.72
2022-07-30T17:54:56.963Z,97992.06
2022-07-30T17:57:27.512Z,98006.97
2022-07-30T17:59:57.948Z,98002.63
2022-07-30T18:02:29.027Z,98001.50
2022-07-30T18:04:59.562Z,97999.97
2022-07-30T18:07:32.848Z,97999.81
2022-07-30T18:10:03.400Z,98005.22
2022-07-30T18:12:34.399Z,98011.59
2022-07-30T18:15:06.499Z,98012.84
2022-07-30T18:17:36.752Z,98016.34
2022-07-30T18:20:08.874Z,98010.09
2022-07-30T18:22:41.968Z,98013.31
2022-07-30T18:25:18.607Z,98011.63
2022-07-30T18:27:51.418Z,98008.38
2022-07-30T18:30:22.461Z,98002.94
2022-07-30T18:32:53.308Z,98006.09
2022-07-30T18:35:23.542Z,98013.22
2022-07-30T18:37:56.370Z,98012.53
2022-07-30T18:40:27.046Z,98008.72
2022-07-30T18:42:56.986Z,98020.72
2022-07-30T18:45:28.662Z,98013.31
2022-07-30T18:47:59.927Z,98022.56
2022-07-30T18:50:30.809Z,98013.06
2022-07-30T18:53:15.311Z,98018.22
2022-07-30T18:55:46.437Z,98015.41
2022-07-30T18:58:17.059Z,98019.44
2022-07-30T19:00:47.410Z,98021.44
2022-07-30T19:03:22.878Z,98031.44
2022-07-30T19:05:53.404Z,98034.63
2022-07-30T19:08:26.218Z,98032.78
2022-07-30T19:10:56.488Z,98029.47
2022-07-30T19:13:26.717Z,98030.41
2022-07-30T19:15:56.918Z,98034.97
2022-07-30T19:18:27.183Z,98047.84
2022-07-30T19:20:57.324Z,98041.59
2022-07-30T19:23:30.135Z,98046.19
2022-07-30T19:26:00.643Z,98047.97
2022-07-30T19:28:30.827Z,98051.75
2022-07-30T19:31:00.945Z,98056.28
2022-07-30T19:33:31.146Z,98048.69
2022-07-30T19:36:02.969Z,98052.53
2022-07-30T19:38:37.380Z,98059.47
2022-07-30T19:41:07.615Z,98052.78
2022-07-30T19:43:37.996Z,98054.50
2022-07-30T19:46:09.498Z,98046.91
2022-07-30T19:48:41.355Z,98052.00
2022-07-30T19:51:20.214Z,98058.38
2022-07-30T19:53:54.012Z,98062.53
2022-07-30T19:56:24.140Z,98060.56
2022-07-30T19:58:54.357Z,98063.22
2022-07-30T20:01:24.595Z,98060.94
2022-07-30T20:04:11.873Z,98065.09
2022-07-30T20:06:46.115Z,98056.13
2022-07-30T20:09:19.242Z,98062.19
2022-07-30T20:11:49.440Z,98057.50
2022-07-30T20:14:22.967Z,98063.13
2022-07-30T20:16:53.194Z,98057.75
2022-07-30T20:19:23.468Z,98062.13
2022-07-30T20:21:57.619Z,98053.97
2022-07-30T20:24:40.345Z,98061.94
2022-07-30T20:27:36.220Z,98057.66
2022-07-30T20:30:01.347Z,98060.22
2022-07-30T20:32:31.766Z,98058.19
2022-07-30T20:35:02.117Z,98058.47
2022-07-30T20:37:32.763Z,98060.56
2022-07-30T20:40:16.798Z,98056.72
2022-07-30T20:42:47.558Z,98052.88
2022-07-30T20:45:18.146Z,98055.72
2022-07-30T20:47:56.842Z,98060.09
2022-07-30T20:50:28.352Z,98057.88
2022-07-30T20:53:01.803Z,98051.25
2022-07-30T20:55:34.380Z,98046.69
2022-07-30T20:58:16.308Z,98057.16
2022-07-30T21:00:49.783Z,98057.16
2022-07-30T21:03:21.893Z,98060.75
2022-07-30T21:05:52.820Z,98056.44
2022-07-30T21:08:25.559Z,98056.94
2022-07-30T21:11:00.272Z,98055.16
2022-07-30T21:13:30.674Z,98061.00
2022-07-30T21:16:03.515Z,98055.69
2022-07-30T21:18:34.485Z,98054.66
2022-07-30T21:21:05.702Z,98059.00
2022-07-30T21:23:36.544Z,98058.53
2022-07-30T21:26:13.329Z,98058.06
2022-07-30T21:28:43.961Z,98049.16
2022-07-30T21:31:14.796Z,98054.78
2022-07-30T21:33:45.045Z,98056.28
2022-07-30T21:36:16.288Z,98057.31
2022-07-30T21:38:46.530Z,98060.56
2022-07-30T21:41:20.156Z,98056.53
2022-07-30T21:44:10.328Z,98065.75
2022-07-30T21:46:40.810Z,98059.94
2022-07-30T21:49:12.081Z,98061.69
2022-07-30T21:51:42.264Z,98056.88
2022-07-30T21:54:17.027Z,98054.06
2022-07-30T21:56:59.425Z,98060.69
2022-07-30T21:59:29.733Z,98058.88
2022-07-30T22:02:00.739Z,98057.38
2022-07-30T22:04:31.045Z,98047.19
2022-07-30T22:07:02.388Z,98050.78
2022-07-30T22:09:34.066Z,98052.63
2022-07-30T22:12:12.451Z,98051.13
2022-07-30T22:14:43.602Z,98051.09
2022-07-30T22:17:23.575Z,98063.06
2022-07-30T22:20:08.596Z,98056.22
2022-07-30T22:22:41.657Z,98052.47
2022-07-30T22:25:13.570Z,98053.00
2022-07-30T22:27:56.161Z,98049.94
2022-07-30T22:30:29.768Z,98053.22
2022-07-30T22:33:15.763Z,98045.03
2022-07-30T22:35:49.662Z,98054.69
2022-07-30T22:38:21.082Z,98049.06
2022-07-30T22:40:52.483Z,98045.72
2022-07-30T22:43:33.311Z,98040.63
2022-07-30T22:49:01.248Z,98054.69
2022-07-30T22:52:02.825Z,98054.97
2022-07-30T22:54:22.050Z,98056.72
2022-07-30T22:56:53.232Z,98053.16
2022-07-30T22:59:29.107Z,98044.78
2022-07-30T23:02:17.939Z,98044.56
2022-07-30T23:04:48.237Z,98050.16
2022-07-30T23:07:19.413Z,98043.78
2022-07-30T23:09:51.886Z,98042.25
2022-07-30T23:12:22.441Z,98033.78
2022-07-30T23:12:34.447Z,98046.53
2022-07-30T23:14:56.068Z,98037.09
2022-07-30T23:17:26.281Z,98036.03
2022-07-30T23:19:56.486Z,98031.19
2022-07-30T23:22:26.664Z,98021.97
2022-07-30T23:24:56.808Z,98023.53
2022-07-30T23:27:27.003Z,98023.03
2022-07-30T23:29:59.914Z,98029.66
2022-07-30T23:32:30.230Z,98026.34
2022-07-30T23:35:00.815Z,98025.38
2022-07-30T23:37:37.938Z,98019.84
2022-07-30T23:40:20.058Z,98029.53
2022-07-30T23:42:51.089Z,98030.28
2022-07-30T23:45:24.125Z,98032.38
2022-07-30T23:48:01.688Z,98034.38
2022-07-30T23:50:33.837Z,98037.19
2022-07-30T23:53:03.835Z,98036.19
2022-07-30T23:55:36.109Z,98041.31
2022-07-30T23:58:06.772Z,98041.53
